Skip Navigation Links Skip Navigation Links

Current Weather

Rochelle Muni Airport-Koritz Field, Rochelle, Ill.

For information only: do not use for flight planning or navigation.
Latest weather
Observation time Sunday, August 25, 2019 12:15 AM CDT
Local time Sunday, August 25, 2019 12:30 AM CDT
Flight conditions Visual Meteorological Conditions
Winds
Wind direction East (80°)
Wind speed 6 mph
Visibility 10 mi.
Sky condition
Ceiling unlimited
Sky clear
Temperature 58°F
Dewpoint 54°F
Altimeter 30.18 in.Hg
Derived measurements
Relative humidity 87%
Density altitude 640 ft.
Remarks
Fully automated report.
Automated weather observing station with precipitation discriminator.
METAR KRPJ 250515Z AUTO 08005KT 10SM CLR 15/13 A3018 RMK AO2 T01460125

Settings

Location code

InnerDrive.Weather 4.0.6770.0 Release CLR 4.0.30319.42000
Copyright ©2018 Inner Drive Technology. All rights reserved. Portions Copyright ©1986-2018 David Braverman.

Find weather

Site navigation


Skip Navigation Links

Place info

Page info

PayPal - The safer, easier way to pay online!

Return home.

Copyright ©2019 Inner Drive Technology. Purveyors of fine, hand-crafted computer software. Page printed 2019-08-25T05:30:15 UTC.